Plymouth, ME (04969)

1:01 AM EDT on April 27, 2015 (GMT -0400)
Hopkins Road | | Change Station
CLOSE
Current Station
Personal Weather Station
Location: Plymouth, ME
Elevation: 341 ft
Nearby Weather Stations
Active Advisory: Flood Warning

Elev 341 ft 44.74 °N, 69.17 °W | Updated 1 minute ago

Overcast
Overcast
41.7 °F
Feels Like 42 °F
N
0.0
Wind Variable Wind from North
Gusts 1.6 mph

Today
High -- | Low -- °F
--% Chance of Precip.
Yesterday
High -- | Low -- °F
Precip. -- in
5:33 AM 7:36 PM
First Quarter, 61% visible
Pressure 29.58 in
Visibility 10.0 miles
Clouds Mostly Cloudy 1100 ft
Mostly Cloudy 4700 ft
Windchill 42 °F
Dew Point 42 °F
Humidity 99%
Rainfall 0.00 in
Snow Depth Not available.
UV 0 out of 12
Pollen 8.00 out of 12
Air Quality Not available.
Flu Activity Regional
METAR KBGR 270453Z 35009KT 10SM BKN011 BKN047 06/04 A2958 RMK AO2 SLP017 T00560039 401060017

More Conditions Fewer Conditions

Pressure 29.58 in
Visibility 10.0 miles
Clouds Mostly Cloudy 1100 ft
Mostly Cloudy 4700 ft
Windchill 42 °F
Dew Point 42 °F
Humidity 99%
Rainfall 0.00 in
Snow Depth Not available.
UV 0 out of 12
Pollen 8.00 out of 12
Air Quality Not available.
Flu Activity Regional
METAR KBGR 270453Z 35009KT 10SM BKN011 BKN047 06/04 A2958 RMK AO2 SLP017 T00560039 401060017

More Conditions Fewer Conditions

The full scope of the disaster following a powerful 7.8-magnitude earthquake in Nepal may not come into view for days, but global charities are already sending emergency aid. Click to see how you can help.

10-Day Weather Forecast

Almanac

Astronomy

Apr. 27, 2015 Rise Set
Actual Time
Civil Twilight
Nautical Twilight
Astronomical Twilight
Moon
Length of Visible Light
Length of Day
Tomorrow will be .
, % of the Moon is Illuminated

Today's Extremes

State Highs State Lows

Community

WunderPhotos

Upload Photos

1,817,263 photos uploaded!

WunderBlogs® & News

Nearby

Air Quality

  Air Quality AQ Index Pollutant
Not available.

Snow Depth

Station Depth Elevation

Earthquake Activity

City Distance Mag. Time & Date
Minimum magnitude displayed is 2.5.

Coastal Water Temperatures

Place Temperature

Stations

Nearby Weather Stations

Station Location Temp. Windchill Dew Point Humidity Wind Precip. Elev Updated Type
                   
Flood Warning
Statement as of 7:16 PM EDT on April 26, 2015

... Flood Warning extended until Tuesday evening... the Flood Warning
continues for
the Mattawamkeag River above Mattawamkeag
* until Tuesday evening... or until the warning is cancelled.
* At 6:45 PM Sunday the stage was 14.1 feet
* minor flooding is occurring and minor flooding is forecast.
* Flood stage is 13.5 feet.
* Forecast... the river will fluctuate around 14.1 feet this
evening. The river will fall below flood stage by Tuesday evening.
* Impacts... at 13.5 feet, minor lowland flooding occurs. Bancroft Road has been
reopened at this time


Lat... Lon 4557 6838 4560 6819 4572 6808 4566 6794
      4551 6810 4546 6835